createdAt,value
2022-11-09T00:03:39.176Z,100295.49
2022-11-09T00:07:06.320Z,100291.91
2022-11-09T00:10:33.500Z,100289.31
2022-11-09T00:14:01.393Z,100290.42
2022-11-09T00:17:30.486Z,100286.33
2022-11-09T00:20:57.637Z,100280.36
2022-11-09T00:24:24.768Z,100284.73
2022-11-09T00:27:51.928Z,100275.16
2022-11-09T00:31:21.253Z,100275.70
2022-11-09T00:34:48.243Z,100277.72
2022-11-09T00:38:14.725Z,100279.27
2022-11-09T00:41:41.915Z,100281.92
2022-11-09T00:45:09.925Z,100286.77
2022-11-09T00:48:37.218Z,100281.58
2022-11-09T00:52:04.723Z,100276.55
2022-11-09T00:55:32.206Z,100277.85
2022-11-09T00:58:59.749Z,100271.55
2022-11-09T01:02:26.571Z,100269.25
2022-11-09T01:05:55.478Z,100267.10
2022-11-09T01:09:22.209Z,100267.71
2022-11-09T01:12:49.424Z,100265.97
2022-11-09T01:16:21.612Z,100265.05
2022-11-09T01:19:48.601Z,100263.62
2022-11-09T01:23:18.323Z,100263.77
2022-11-09T01:26:45.279Z,100258.05
2022-11-09T01:30:14.983Z,100257.77
2022-11-09T01:33:42.551Z,100257.66
2022-11-09T01:37:09.245Z,100261.38
2022-11-09T01:40:38.154Z,100262.55
2022-11-09T01:44:09.559Z,100260.30
2022-11-09T01:47:39.619Z,100266.16
2022-11-09T01:51:11.912Z,100274.61
2022-11-09T01:54:44.740Z,100276.71
2022-11-09T01:58:16.426Z,100258.60
2022-11-09T02:01:44.984Z,100243.67
2022-11-09T02:05:17.317Z,100240.79
2022-11-09T02:08:48.065Z,100226.34
2022-11-09T02:12:15.477Z,100222.89
2022-11-09T02:15:45.842Z,100222.42
2022-11-09T02:19:13.432Z,100228.59
2022-11-09T02:22:41.816Z,100217.41
2022-11-09T02:26:14.550Z,100214.09
2022-11-09T02:29:43.598Z,100211.33
2022-11-09T02:33:10.357Z,100210.03
2022-11-09T02:36:37.607Z,100204.88
2022-11-09T02:40:11.135Z,100224.73
2022-11-09T02:43:38.884Z,100215.23
2022-11-09T02:47:07.206Z,100226.05
2022-11-09T02:50:36.398Z,100223.59
2022-11-09T02:54:03.781Z,100216.35
2022-11-09T02:57:30.805Z,100217.40
2022-11-09T03:00:58.986Z,100227.34
2022-11-09T03:04:25.696Z,100239.09
2022-11-09T03:07:52.850Z,100238.70
2022-11-09T03:11:24.759Z,100234.45
2022-11-09T03:14:51.967Z,100220.51
2022-11-09T03:18:19.687Z,100223.90
2022-11-09T03:21:47.152Z,100224.75
2022-11-09T03:25:13.995Z,100224.81
2022-11-09T03:28:41.320Z,100224.14
2022-11-09T03:32:08.935Z,100223.20
2022-11-09T03:35:36.346Z,100220.39
2022-11-09T03:39:03.237Z,100208.46
2022-11-09T03:42:30.339Z,100209.05
2022-11-09T03:45:57.349Z,100214.35
2022-11-09T03:49:25.325Z,100234.03
2022-11-09T03:52:52.237Z,100223.42
2022-11-09T03:56:19.231Z,100222.33
2022-11-09T03:59:46.669Z,100227.14
2022-11-09T04:03:13.252Z,100230.23
2022-11-09T04:06:40.498Z,100232.74
2022-11-09T04:10:08.877Z,100225.98
2022-11-09T04:13:35.471Z,100227.27
2022-11-09T04:17:02.213Z,100229.77
2022-11-09T04:20:31.177Z,100229.48
2022-11-09T04:23:58.057Z,100216.02
2022-11-09T04:27:25.299Z,100202.80
2022-11-09T04:30:52.105Z,100219.35
2022-11-09T04:34:19.457Z,100216.98
2022-11-09T04:37:46.104Z,100215.27
2022-11-09T04:41:13.284Z,100211.02
2022-11-09T04:44:39.573Z,100207.63
2022-11-09T04:48:08.677Z,100208.29
2022-11-09T04:51:35.674Z,100214.16
2022-11-09T04:55:02.285Z,100216.41
2022-11-09T04:58:29.613Z,100215.92
2022-11-09T05:01:56.329Z,100184.95
2022-11-09T05:05:23.474Z,100166.98
2022-11-09T05:08:49.779Z,100172.18
2022-11-09T05:12:16.909Z,100192.48
2022-11-09T05:15:43.863Z,100198.84
2022-11-09T05:19:10.879Z,100200.86
2022-11-09T05:23:00.818Z,100207.74
2022-11-09T05:26:32.940Z,100212.07
2022-11-09T05:29:59.679Z,100208.86
2022-11-09T05:33:27.010Z,100207.82
2022-11-09T05:36:53.689Z,100200.17
2022-11-09T05:40:22.117Z,100198.84
2022-11-09T05:43:49.765Z,100194.27
2022-11-09T05:47:19.281Z,100198.45
2022-11-09T05:50:46.771Z,100197.45
2022-11-09T05:54:18.702Z,100203.27
2022-11-09T05:57:45.683Z,100210.05
2022-11-09T06:01:16.251Z,100209.26
2022-11-09T06:04:43.352Z,100217.65
2022-11-09T06:08:13.144Z,100211.01
2022-11-09T06:11:41.593Z,100211.40
2022-11-09T06:15:10.450Z,100219.02
2022-11-09T06:18:39.957Z,100214.39
2022-11-09T06:22:07.006Z,100209.08
2022-11-09T06:25:35.585Z,100212.41
2022-11-09T06:29:03.611Z,100209.72
2022-11-09T06:32:32.837Z,100211.98
2022-11-09T06:36:00.147Z,100211.27
2022-11-09T06:39:27.025Z,100212.79
2022-11-09T06:42:54.037Z,100209.50
2022-11-09T06:46:21.854Z,100213.91
2022-11-09T06:49:49.361Z,100221.17
2022-11-09T06:53:19.880Z,100222.04
2022-11-09T06:56:47.677Z,100225.09
2022-11-09T07:00:18.268Z,100222.77
2022-11-09T07:03:45.791Z,100218.77
2022-11-09T07:07:13.551Z,100223.77
2022-11-09T07:10:41.645Z,100220.09
2022-11-09T07:14:08.272Z,100217.43
2022-11-09T07:17:37.268Z,100219.20
2022-11-09T07:21:13.804Z,100220.58
2022-11-09T07:24:49.624Z,100225.84
2022-11-09T07:28:17.029Z,100222.16
2022-11-09T07:31:44.428Z,100217.52
2022-11-09T07:35:12.631Z,100228.66
2022-11-09T07:38:39.560Z,100238.12
2022-11-09T07:42:06.623Z,100247.67
2022-11-09T07:45:36.384Z,100252.06
2022-11-09T07:49:03.224Z,100246.45
2022-11-09T07:52:30.286Z,100236.72
2022-11-09T07:56:01.799Z,100238.77
2022-11-09T07:59:28.607Z,100244.82
2022-11-09T08:02:55.774Z,100236.95
2022-11-09T08:06:24.556Z,100239.16
2022-11-09T08:09:51.474Z,100233.66
2022-11-09T08:13:19.089Z,100226.41
2022-11-09T08:16:45.990Z,100215.33
2022-11-09T08:20:13.272Z,100213.91
2022-11-09T08:23:40.101Z,100220.08
2022-11-09T08:27:07.422Z,100232.56
2022-11-09T08:30:35.379Z,100228.73
2022-11-09T08:34:02.064Z,100225.94
2022-11-09T08:37:28.845Z,100222.86
2022-11-09T08:40:59.916Z,100221.78
2022-11-09T08:44:26.885Z,100217.48
2022-11-09T08:48:00.800Z,100212.95
2022-11-09T08:51:27.547Z,100219.42
2022-11-09T08:54:55.011Z,100222.14
2022-11-09T08:58:23.116Z,100226.21
2022-11-09T09:01:50.710Z,100226.10
2022-11-09T09:05:18.690Z,100229.23
2022-11-09T09:08:48.552Z,100227.38
2022-11-09T09:12:16.062Z,100236.38
2022-11-09T09:15:42.595Z,100243.85
2022-11-09T09:19:08.892Z,100246.20
2022-11-09T09:22:36.462Z,100246.00
2022-11-09T09:26:04.601Z,100250.53
2022-11-09T09:29:31.629Z,100255.29
2022-11-09T09:33:02.477Z,100248.66
2022-11-09T09:36:30.567Z,100246.07
2022-11-09T09:39:57.484Z,100249.98
2022-11-09T09:43:32.519Z,100255.30
2022-11-09T09:47:06.621Z,100248.91
2022-11-09T09:50:38.559Z,100250.48
2022-11-09T09:54:09.148Z,100250.37
2022-11-09T09:57:41.879Z,100257.33
2022-11-09T10:01:20.297Z,100247.34
2022-11-09T10:04:48.117Z,100241.52
2022-11-09T10:08:23.544Z,100233.90
2022-11-09T10:12:01.130Z,100229.27
2022-11-09T10:15:34.042Z,100226.61
2022-11-09T10:19:25.853Z,100224.35
2022-11-09T10:23:10.471Z,100220.04
2022-11-09T10:26:47.233Z,100224.23
2022-11-09T10:30:20.059Z,100233.18
2022-11-09T10:33:55.593Z,100236.52
2022-11-09T10:37:29.259Z,100240.31
2022-11-09T10:41:01.478Z,100233.98
2022-11-09T10:44:47.535Z,100220.60
2022-11-09T10:48:39.061Z,100226.38
2022-11-09T10:52:46.137Z,100223.88
2022-11-09T10:57:05.073Z,100220.73
2022-11-09T11:01:07.221Z,100225.83
2022-11-09T11:04:53.639Z,100227.66
2022-11-09T11:08:45.005Z,100235.84
2022-11-09T11:12:31.129Z,100244.33
2022-11-09T11:16:30.822Z,100240.79
2022-11-09T11:20:31.660Z,100234.88
2022-11-09T11:24:19.787Z,100238.04
2022-11-09T11:28:17.153Z,100242.20
2022-11-09T11:32:03.750Z,100242.89
2022-11-09T11:35:55.431Z,100241.02
2022-11-09T11:40:03.032Z,100244.30
2022-11-09T11:43:58.663Z,100255.61
2022-11-09T11:47:54.344Z,100259.08
2022-11-09T11:51:48.572Z,100259.04
2022-11-09T11:55:53.048Z,100261.71
2022-11-09T11:59:59.403Z,100264.59
2022-11-09T12:03:58.964Z,100263.56
2022-11-09T12:07:57.188Z,100256.14
2022-11-09T12:11:57.605Z,100250.34
2022-11-09T12:15:56.665Z,100254.30
2022-11-09T12:20:16.285Z,100252.02
2022-11-09T12:24:23.368Z,100252.92
2022-11-09T12:28:26.054Z,100240.73
2022-11-09T12:32:24.468Z,100241.52
2022-11-09T12:36:15.595Z,100238.98
2022-11-09T12:40:14.018Z,100234.94
2022-11-09T12:44:03.523Z,100230.63
2022-11-09T12:47:50.280Z,100234.70
2022-11-09T12:51:37.271Z,100241.11
2022-11-09T12:55:29.877Z,100246.46
2022-11-09T12:59:35.744Z,100248.50
2022-11-09T13:03:26.233Z,100255.20
2022-11-09T13:07:33.626Z,100246.00
2022-11-09T13:11:34.647Z,100238.08
2022-11-09T13:15:31.171Z,100234.05
2022-11-09T13:19:52.760Z,100237.63
2022-11-09T13:24:02.061Z,100239.20
2022-11-09T13:27:53.167Z,100238.30
2022-11-09T13:32:24.511Z,100246.98
2022-11-09T13:36:21.683Z,100239.06
2022-11-09T13:40:48.800Z,100232.77
2022-11-09T13:44:45.830Z,100233.65
2022-11-09T13:48:42.249Z,100230.90
2022-11-09T13:52:59.950Z,100232.88
2022-11-09T13:56:49.130Z,100249.50
2022-11-09T14:00:50.344Z,100254.39
2022-11-09T14:04:41.822Z,100261.49
2022-11-09T14:08:29.537Z,100268.60
2022-11-09T14:12:28.077Z,100276.11
2022-11-09T14:16:26.786Z,100271.05
2022-11-09T14:20:32.585Z,100264.68
2022-11-09T14:24:23.554Z,100271.89
2022-11-09T14:28:25.875Z,100259.15
2022-11-09T14:32:27.651Z,100261.73
2022-11-09T14:36:17.028Z,100262.11
2022-11-09T14:40:03.093Z,100260.81
2022-11-09T14:43:50.396Z,100254.23
2022-11-09T14:47:40.209Z,100250.19
2022-11-09T14:51:33.857Z,100249.52
2022-11-09T14:55:24.270Z,100246.92
2022-11-09T14:59:14.551Z,100253.95
2022-11-09T15:03:28.066Z,100268.33
2022-11-09T15:07:23.284Z,100272.78
2022-11-09T15:11:13.102Z,100271.66
2022-11-09T15:15:05.007Z,100275.73
2022-11-09T15:18:55.432Z,100274.45
2022-11-09T15:22:57.400Z,100277.90
2022-11-09T15:26:48.815Z,100281.97
2022-11-09T15:30:44.582Z,100285.05
2022-11-09T15:34:38.064Z,100287.92
2022-11-09T15:38:39.307Z,100283.70
2022-11-09T15:42:27.663Z,100289.95
2022-11-09T15:46:18.007Z,100288.48
2022-11-09T15:50:07.352Z,100295.52
2022-11-09T15:53:54.371Z,100288.84
2022-11-09T15:57:42.113Z,100281.38
2022-11-09T16:01:29.384Z,100274.52
2022-11-09T16:05:17.361Z,100269.61
2022-11-09T16:09:06.947Z,100264.66
2022-11-09T16:12:56.771Z,100269.77
2022-11-09T16:16:47.750Z,100277.02
2022-11-09T16:20:35.555Z,100274.44
2022-11-09T16:24:21.739Z,100274.85
2022-11-09T16:28:08.294Z,100274.41
2022-11-09T16:31:55.085Z,100266.30
2022-11-09T16:35:40.697Z,100266.63
2022-11-09T16:39:30.284Z,100267.77
2022-11-09T16:43:16.505Z,100258.69
2022-11-09T16:47:03.612Z,100256.30
2022-11-09T16:50:49.517Z,100260.23
2022-11-09T16:54:45.422Z,100268.55
2022-11-09T16:58:35.359Z,100272.15
2022-11-09T17:02:22.987Z,100279.61
2022-11-09T17:06:11.454Z,100282.02
2022-11-09T17:09:58.118Z,100281.89
2022-11-09T17:13:44.524Z,100288.73
2022-11-09T17:17:30.533Z,100291.11
2022-11-09T17:21:16.647Z,100291.23
2022-11-09T17:25:03.402Z,100292.35
2022-11-09T17:28:49.827Z,100288.20
2022-11-09T17:32:38.385Z,100282.63
2022-11-09T17:36:48.930Z,100283.52
2022-11-09T17:40:32.380Z,100280.95
2022-11-09T17:44:21.350Z,100279.16
2022-11-09T17:48:08.449Z,100275.85
2022-11-09T17:51:54.172Z,100281.45
2022-11-09T17:55:42.756Z,100282.34
2022-11-09T17:59:31.131Z,100277.35
2022-11-09T18:03:17.224Z,100276.70
2022-11-09T18:07:03.052Z,100281.19
2022-11-09T18:10:51.125Z,100290.44
2022-11-09T18:14:37.306Z,100289.94
2022-11-09T18:18:23.995Z,100285.37
2022-11-09T18:22:12.936Z,100293.67
2022-11-09T18:26:02.235Z,100296.06
2022-11-09T18:29:49.360Z,100293.23
2022-11-09T18:33:40.480Z,100301.19
2022-11-09T18:37:27.253Z,100302.28
2022-11-09T18:41:20.475Z,100301.11
2022-11-09T18:45:08.939Z,100303.45
2022-11-09T18:48:56.817Z,100300.52
2022-11-09T18:52:44.433Z,100296.65
2022-11-09T18:56:31.227Z,100296.41
2022-11-09T19:00:20.704Z,100300.20
2022-11-09T19:04:08.026Z,100296.42
2022-11-09T19:07:55.771Z,100303.36
2022-11-09T19:11:46.045Z,100310.05
2022-11-09T19:15:35.457Z,100311.36
2022-11-09T19:19:22.373Z,100304.23
2022-11-09T19:23:08.844Z,100308.41
2022-11-09T19:26:57.131Z,100310.11
2022-11-09T19:30:43.377Z,100312.73
2022-11-09T19:34:29.377Z,100316.30
2022-11-09T19:38:18.064Z,100320.05
2022-11-09T19:42:05.084Z,100326.72
2022-11-09T19:45:53.769Z,100327.21
2022-11-09T19:49:41.092Z,100328.23
2022-11-09T19:53:27.067Z,100334.59
2022-11-09T19:57:16.289Z,100336.02
2022-11-09T20:01:12.209Z,100335.71
2022-11-09T20:05:04.687Z,100335.34
2022-11-09T20:08:54.137Z,100342.52
2022-11-09T20:12:52.034Z,100343.27
2022-11-09T20:16:40.193Z,100344.25
2022-11-09T20:20:26.433Z,100344.42
2022-11-09T20:24:12.814Z,100343.04
2022-11-09T20:28:02.936Z,100340.18
2022-11-09T20:31:52.054Z,100343.76
2022-11-09T20:35:41.719Z,100344.04
2022-11-09T20:39:30.939Z,100339.52
2022-11-09T20:43:16.508Z,100344.92
2022-11-09T20:47:02.144Z,100342.03
2022-11-09T20:50:49.756Z,100344.63
2022-11-09T20:54:35.639Z,100342.91
2022-11-09T20:58:26.454Z,100338.11
2022-11-09T21:02:17.444Z,100340.11
2022-11-09T21:06:11.130Z,100340.63
2022-11-09T21:09:59.064Z,100345.79
2022-11-09T21:13:52.079Z,100348.77
2022-11-09T21:17:40.779Z,100350.38
2022-11-09T21:21:36.111Z,100353.46
2022-11-09T21:25:40.956Z,100342.56
2022-11-09T21:29:45.632Z,100347.11
2022-11-09T21:33:35.005Z,100347.95
2022-11-09T21:37:25.435Z,100344.58
2022-11-09T21:41:42.043Z,100339.00
2022-11-09T21:45:31.065Z,100342.74
2022-11-09T21:49:17.462Z,100350.73
2022-11-09T21:53:04.283Z,100355.67
2022-11-09T21:56:54.427Z,100356.45
2022-11-09T22:00:40.510Z,100355.77
2022-11-09T22:04:32.412Z,100353.08
2022-11-09T22:08:35.104Z,100361.39
2022-11-09T22:12:46.429Z,100360.34
2022-11-09T22:16:35.477Z,100362.09
2022-11-09T22:20:41.340Z,100365.84
2022-11-09T22:24:28.046Z,100368.76
2022-11-09T22:28:16.150Z,100362.14
2022-11-09T22:32:05.477Z,100362.80
2022-11-09T22:35:57.773Z,100365.75
2022-11-09T22:39:47.316Z,100363.68
2022-11-09T22:43:45.179Z,100366.59
2022-11-09T22:47:42.982Z,100368.68
2022-11-09T22:51:29.649Z,100368.91
2022-11-09T22:55:18.840Z,100369.80
2022-11-09T22:59:05.272Z,100370.65
2022-11-09T23:02:57.806Z,100367.12
2022-11-09T23:06:44.067Z,100378.11
2022-11-09T23:10:30.129Z,100379.65
2022-11-09T23:14:36.932Z,100377.52
2022-11-09T23:18:40.849Z,100374.95
2022-11-09T23:22:26.941Z,100374.26
2022-11-09T23:26:14.568Z,100376.23
2022-11-09T23:30:00.688Z,100378.44
2022-11-09T23:33:46.919Z,100380.34
2022-11-09T23:37:38.457Z,100378.55
2022-11-09T23:41:24.913Z,100382.20
2022-11-09T23:45:14.401Z,100389.45
2022-11-09T23:49:03.028Z,100390.48
2022-11-09T23:52:49.516Z,100385.48
2022-11-09T23:56:36.186Z,100382.40
